createdAt,value
2018-06-01T00:00:42.787Z,18.23
2018-06-01T00:03:11.491Z,18.22
2018-06-01T00:05:40.094Z,18.18
2018-06-01T00:08:08.657Z,18.05
2018-06-01T00:10:37.236Z,17.94
2018-06-01T00:13:05.788Z,17.86
2018-06-01T00:15:34.346Z,17.80
2018-06-01T00:18:02.892Z,17.73
2018-06-01T00:20:31.472Z,17.65
2018-06-01T00:23:00.031Z,17.62
2018-06-01T00:25:28.589Z,17.56
2018-06-01T00:27:57.159Z,17.53
2018-06-01T00:30:25.746Z,17.51
2018-06-01T00:32:54.296Z,17.45
2018-06-01T00:35:22.840Z,17.41
2018-06-01T00:37:51.387Z,17.37
2018-06-01T00:40:19.979Z,17.35
2018-06-01T00:42:48.523Z,17.32
2018-06-01T00:45:17.114Z,17.27
2018-06-01T00:47:45.697Z,17.27
2018-06-01T00:50:14.261Z,17.24
2018-06-01T00:52:42.815Z,17.21
2018-06-01T00:55:22.376Z,17.18
2018-06-01T00:57:50.965Z,17.15
2018-06-01T01:00:19.555Z,17.07
2018-06-01T01:02:48.144Z,17.05
2018-06-01T01:05:16.737Z,17.04
2018-06-01T01:07:45.321Z,17.00
2018-06-01T01:10:13.943Z,16.94
2018-06-01T01:12:42.548Z,16.91
2018-06-01T01:15:11.120Z,16.91
2018-06-01T01:17:39.665Z,16.93
2018-06-01T01:20:08.220Z,17.01
2018-06-01T01:22:36.767Z,17.03
2018-06-01T01:25:05.324Z,17.00
2018-06-01T01:27:33.911Z,16.96
2018-06-01T01:30:05.714Z,16.92
2018-06-01T01:32:34.303Z,16.92
2018-06-01T01:35:02.863Z,16.84
2018-06-01T01:37:31.629Z,16.83
2018-06-01T01:39:59.563Z,16.79
2018-06-01T01:42:28.117Z,16.78
2018-06-01T01:44:56.676Z,16.77
2018-06-01T01:47:25.247Z,16.74
2018-06-01T01:49:54.849Z,16.68
2018-06-01T01:52:23.429Z,16.65
2018-06-01T01:54:51.983Z,16.59
2018-06-01T01:57:20.539Z,16.56
2018-06-01T01:59:49.093Z,16.51
2018-06-01T02:02:17.650Z,16.45
2018-06-01T02:04:46.203Z,16.40
2018-06-01T02:07:14.746Z,16.39
2018-06-01T02:09:43.301Z,16.37
2018-06-01T02:12:11.855Z,16.37
2018-06-01T02:14:40.403Z,16.34
2018-06-01T02:17:08.948Z,16.31
2018-06-01T02:19:37.512Z,16.34
2018-06-01T02:22:06.075Z,16.35
2018-06-01T02:24:34.661Z,16.34
2018-06-01T02:27:03.235Z,16.29
2018-06-01T02:29:31.808Z,16.26
2018-06-01T02:32:00.370Z,16.23
2018-06-01T02:34:29.013Z,16.21
2018-06-01T02:36:57.616Z,16.20
2018-06-01T02:39:26.174Z,16.16
2018-06-01T02:41:54.754Z,16.15
2018-06-01T02:44:23.311Z,16.15
2018-06-01T02:46:51.899Z,16.14
2018-06-01T02:49:20.451Z,16.14
2018-06-01T02:51:48.999Z,16.13
2018-06-01T02:54:17.547Z,16.06
2018-06-01T02:56:46.156Z,16.04
2018-06-01T02:59:14.713Z,16.03
2018-06-01T03:01:43.280Z,16.00
2018-06-01T03:04:11.842Z,15.98
2018-06-01T03:06:51.287Z,15.99
2018-06-01T03:09:19.880Z,16.03
2018-06-01T03:11:48.453Z,16.10
2018-06-01T03:14:17.049Z,16.11
2018-06-01T03:16:45.646Z,16.04
2018-06-01T03:19:14.238Z,15.98
2018-06-01T03:21:42.793Z,15.98
2018-06-01T03:24:11.479Z,15.94
2018-06-01T03:26:40.028Z,15.92
2018-06-01T03:29:08.588Z,15.87
2018-06-01T03:31:37.141Z,15.91
2018-06-01T03:34:05.360Z,15.95
2018-06-01T03:36:33.914Z,15.99
2018-06-01T03:39:02.135Z,16.01
2018-06-01T03:41:30.683Z,16.06
2018-06-01T03:43:59.232Z,16.00
2018-06-01T03:46:27.798Z,16.02
2018-06-01T03:48:56.401Z,15.94
2018-06-01T03:51:24.952Z,15.86
2018-06-01T03:53:53.529Z,15.87
2018-06-01T03:56:22.118Z,15.96
2018-06-01T03:58:50.683Z,16.02
2018-06-01T04:01:19.246Z,16.05
2018-06-01T04:03:47.806Z,16.08
2018-06-01T04:06:16.375Z,16.10
2018-06-01T04:08:44.955Z,16.16
2018-06-01T04:11:13.517Z,16.21
2018-06-01T04:13:42.062Z,16.32
2018-06-01T04:16:10.685Z,16.39
2018-06-01T04:18:39.239Z,16.49
2018-06-01T04:21:07.795Z,16.53
2018-06-01T04:23:36.387Z,16.61
2018-06-01T04:26:04.944Z,16.69
2018-06-01T04:28:33.552Z,16.81
2018-06-01T04:31:02.098Z,16.90
2018-06-01T04:33:30.651Z,16.87
2018-06-01T04:35:59.198Z,16.88
2018-06-01T04:38:28.594Z,17.01
2018-06-01T04:40:57.139Z,17.12
2018-06-01T04:43:25.719Z,17.38
2018-06-01T04:45:54.304Z,17.87
2018-06-01T04:48:22.917Z,18.60
2018-06-01T04:50:51.467Z,19.76
2018-06-01T04:53:20.026Z,21.21
2018-06-01T04:55:48.588Z,22.33
2018-06-01T04:58:17.147Z,23.56
2018-06-01T05:00:45.708Z,24.38
2018-06-01T05:03:14.270Z,24.92
2018-06-01T05:05:42.881Z,25.49
2018-06-01T05:08:11.438Z,26.22
2018-06-01T05:10:39.998Z,26.56
2018-06-01T05:13:08.598Z,27.28
2018-06-01T05:15:37.253Z,27.15
2018-06-01T05:18:05.836Z,27.01
2018-06-01T05:20:34.423Z,26.60
2018-06-01T05:23:03.014Z,26.19
2018-06-01T05:25:31.560Z,25.98
2018-06-01T05:28:00.121Z,26.09
2018-06-01T05:30:28.762Z,26.28
2018-06-01T05:32:57.484Z,26.50
2018-06-01T05:35:26.070Z,26.79
2018-06-01T05:37:54.812Z,26.88
2018-06-01T05:40:23.368Z,26.80
2018-06-01T05:42:51.927Z,27.06
2018-06-01T05:45:20.488Z,27.00
2018-06-01T05:47:49.043Z,26.88
2018-06-01T05:50:17.640Z,26.64
2018-06-01T05:52:46.203Z,26.61
2018-06-01T05:55:14.791Z,26.17
2018-06-01T05:57:43.352Z,25.54
2018-06-01T06:00:11.750Z,24.90
2018-06-01T06:02:40.299Z,24.36
2018-06-01T06:05:08.858Z,23.89
2018-06-01T06:07:37.407Z,23.71
2018-06-01T06:10:06.168Z,23.48
2018-06-01T06:12:34.722Z,23.31
2018-06-01T06:15:03.280Z,23.23
2018-06-01T06:17:31.889Z,23.33
2018-06-01T06:20:00.451Z,23.32
2018-06-01T06:22:29.007Z,23.37
2018-06-01T06:24:57.573Z,23.41
2018-06-01T06:27:26.130Z,23.63
2018-06-01T06:29:55.397Z,23.59
2018-06-01T06:32:24.002Z,23.40
2018-06-01T06:34:52.550Z,23.29
2018-06-01T06:37:21.123Z,23.33
2018-06-01T06:39:49.715Z,23.35
2018-06-01T06:42:18.792Z,23.28
2018-06-01T06:44:47.428Z,23.09
2018-06-01T06:47:15.981Z,23.07
2018-06-01T06:49:44.536Z,23.03
2018-06-01T06:52:13.095Z,23.17
2018-06-01T06:54:41.639Z,23.20
2018-06-01T06:57:10.231Z,23.23
2018-06-01T06:59:38.789Z,23.14
2018-06-01T07:02:07.355Z,23.14
2018-06-01T07:04:35.907Z,23.25
2018-06-01T07:07:04.472Z,23.32
2018-06-01T07:09:33.032Z,23.29
2018-06-01T07:12:01.639Z,23.34
2018-06-01T07:14:30.227Z,23.35
2018-06-01T07:16:58.781Z,23.33
2018-06-01T07:19:27.329Z,23.33
2018-06-01T07:21:55.910Z,23.44
2018-06-01T07:24:24.461Z,23.47
2018-06-01T07:26:53.035Z,23.34
2018-06-01T07:29:21.606Z,23.41
2018-06-01T07:31:50.165Z,23.46
2018-06-01T07:34:18.714Z,23.60
2018-06-01T07:36:47.283Z,23.72
2018-06-01T07:39:15.875Z,23.78
2018-06-01T07:41:44.459Z,23.77
2018-06-01T07:44:13.024Z,23.70
2018-06-01T07:46:41.616Z,23.82
2018-06-01T07:49:10.163Z,23.95
2018-06-01T07:51:38.749Z,24.09
2018-06-01T07:54:07.312Z,24.22
2018-06-01T07:56:35.883Z,24.29
2018-06-01T07:59:04.455Z,24.38
2018-06-01T08:01:33.029Z,24.19
2018-06-01T08:04:01.695Z,24.16
2018-06-01T08:06:30.255Z,24.18
2018-06-01T08:08:58.863Z,24.23
2018-06-01T08:11:27.432Z,24.21
2018-06-01T08:13:56.002Z,24.31
2018-06-01T08:16:24.564Z,24.42
2018-06-01T08:18:53.167Z,24.50
2018-06-01T08:21:21.722Z,24.65
2018-06-01T08:23:50.302Z,24.69
2018-06-01T08:26:18.855Z,24.75
2018-06-01T08:28:47.406Z,24.84
2018-06-01T08:31:15.969Z,24.90
2018-06-01T08:33:44.620Z,25.02
2018-06-01T08:36:13.211Z,25.02
2018-06-01T08:38:41.971Z,25.15
2018-06-01T08:41:10.583Z,25.14
2018-06-01T08:43:39.196Z,25.08
2018-06-01T08:46:07.742Z,25.14
2018-06-01T08:48:36.303Z,25.21
2018-06-01T08:51:04.866Z,25.34
2018-06-01T08:53:33.470Z,25.36
2018-06-01T08:56:02.039Z,25.40
2018-06-01T08:58:30.604Z,25.55
2018-06-01T09:00:59.155Z,25.71
2018-06-01T09:03:27.765Z,25.75
2018-06-01T09:05:56.333Z,25.73
2018-06-01T09:08:24.895Z,25.75
2018-06-01T09:10:53.443Z,25.88
2018-06-01T09:13:21.997Z,25.87
2018-06-01T09:15:50.588Z,25.80
2018-06-01T09:18:19.135Z,25.85
2018-06-01T09:20:47.694Z,25.94
2018-06-01T09:23:16.248Z,25.89
2018-06-01T09:25:44.866Z,25.94
2018-06-01T09:28:13.451Z,25.94
2018-06-01T09:30:42.185Z,26.00
2018-06-01T09:33:10.752Z,25.97
2018-06-01T09:35:39.323Z,26.11
2018-06-01T09:38:07.877Z,26.23
2018-06-01T09:40:36.437Z,26.42
2018-06-01T09:43:05.001Z,26.41
2018-06-01T09:45:33.561Z,26.41
2018-06-01T09:48:02.107Z,26.39
2018-06-01T09:50:30.667Z,26.48
2018-06-01T09:52:59.234Z,26.45
2018-06-01T09:55:27.878Z,26.51
2018-06-01T09:57:56.458Z,26.48
2018-06-01T10:00:30.468Z,26.59
2018-06-01T10:02:59.183Z,26.55
2018-06-01T10:05:27.744Z,26.58
2018-06-01T10:07:56.429Z,26.60
2018-06-01T10:10:31.058Z,26.64
2018-06-01T10:13:00.384Z,26.67
2018-06-01T10:15:29.731Z,26.62
2018-06-01T10:17:58.913Z,26.78
2018-06-01T10:20:27.480Z,26.88
2018-06-01T10:22:56.126Z,26.90
2018-06-01T10:25:24.709Z,26.99
2018-06-01T10:27:53.259Z,26.94
2018-06-01T10:30:21.863Z,27.02
2018-06-01T10:32:50.423Z,27.08
2018-06-01T10:35:18.990Z,27.24
2018-06-01T10:37:47.641Z,27.35
2018-06-01T10:40:16.444Z,27.41
2018-06-01T10:42:45.286Z,27.34
2018-06-01T10:45:13.957Z,27.39
2018-06-01T10:47:43.653Z,27.24
2018-06-01T10:50:12.374Z,27.36
2018-06-01T10:52:40.940Z,27.43
2018-06-01T10:55:09.527Z,27.45
2018-06-01T10:57:38.256Z,27.51
2018-06-01T11:00:06.939Z,27.46
2018-06-01T11:02:35.529Z,27.43
2018-06-01T11:05:04.096Z,27.32
2018-06-01T11:07:32.695Z,27.38
2018-06-01T11:10:01.264Z,27.39
2018-06-01T11:12:29.996Z,27.49
2018-06-01T11:14:58.546Z,27.29
2018-06-01T11:17:27.098Z,27.38
2018-06-01T11:19:55.867Z,27.37
2018-06-01T11:22:24.423Z,27.39
2018-06-01T11:24:52.970Z,27.49
2018-06-01T11:27:21.572Z,27.52
2018-06-01T11:29:50.118Z,27.56
2018-06-01T11:32:18.727Z,27.68
2018-06-01T11:34:47.282Z,27.76
2018-06-01T11:37:15.838Z,27.84
2018-06-01T11:39:44.397Z,27.85
2018-06-01T11:42:12.960Z,27.93
2018-06-01T11:44:41.524Z,28.02
2018-06-01T11:47:10.081Z,28.14
2018-06-01T11:49:38.692Z,28.19
2018-06-01T11:52:07.290Z,28.06
2018-06-01T11:54:35.858Z,28.04
2018-06-01T11:57:04.097Z,28.07
2018-06-01T11:59:32.662Z,28.00
2018-06-01T12:02:01.226Z,28.04
2018-06-01T12:04:29.788Z,28.05
2018-06-01T12:06:58.341Z,28.03
2018-06-01T12:09:26.895Z,27.95
2018-06-01T12:11:55.451Z,27.80
2018-06-01T12:14:24.003Z,27.82
2018-06-01T12:16:52.568Z,27.85
2018-06-01T12:19:21.127Z,27.89
2018-06-01T12:21:49.708Z,27.95
2018-06-01T12:24:18.275Z,28.02
2018-06-01T12:26:46.831Z,27.96
2018-06-01T12:29:15.394Z,28.00
2018-06-01T12:31:44.135Z,28.09
2018-06-01T12:34:12.696Z,28.13
2018-06-01T12:36:41.272Z,27.89
2018-06-01T12:39:09.823Z,27.87
2018-06-01T12:41:38.407Z,28.04
2018-06-01T12:44:06.960Z,28.00
2018-06-01T12:46:35.579Z,28.17
2018-06-01T12:49:04.128Z,28.41
2018-06-01T12:51:32.688Z,28.55
2018-06-01T12:54:01.262Z,28.76
2018-06-01T12:56:29.989Z,28.84
2018-06-01T12:58:58.538Z,28.96
2018-06-01T13:01:27.085Z,29.07
2018-06-01T13:03:55.632Z,29.06
2018-06-01T13:06:24.184Z,29.35
2018-06-01T13:08:52.783Z,29.51
2018-06-01T13:11:21.521Z,29.55
2018-06-01T13:13:50.058Z,29.32
2018-06-01T13:16:18.612Z,29.43
2018-06-01T13:18:47.172Z,29.35
2018-06-01T13:21:15.726Z,29.35
2018-06-01T13:23:44.273Z,29.34
2018-06-01T13:26:12.831Z,29.19
2018-06-01T13:28:41.383Z,28.98
2018-06-01T13:31:09.944Z,28.81
2018-06-01T13:33:38.498Z,28.87
2018-06-01T13:36:07.064Z,28.65
2018-06-01T13:38:35.615Z,28.30
2018-06-01T13:41:04.177Z,28.33
2018-06-01T13:43:32.749Z,28.52
2018-06-01T13:46:01.344Z,28.90
2018-06-01T13:48:29.900Z,28.95
2018-06-01T13:50:58.471Z,29.20
2018-06-01T13:53:27.031Z,29.10
2018-06-01T13:55:55.596Z,29.14
2018-06-01T13:58:24.184Z,29.06
2018-06-01T14:00:52.757Z,28.91
2018-06-01T14:03:21.314Z,28.93
2018-06-01T14:05:49.887Z,28.88
2018-06-01T14:08:18.443Z,28.96
2018-06-01T14:10:47.026Z,29.01
2018-06-01T14:13:15.584Z,28.91
2018-06-01T14:15:44.137Z,28.69
2018-06-01T14:18:12.678Z,28.61
2018-06-01T14:20:41.235Z,28.47
2018-06-01T14:23:09.778Z,28.30
2018-06-01T14:25:38.336Z,28.23
2018-06-01T14:28:06.943Z,28.28
2018-06-01T14:30:35.569Z,28.39
2018-06-01T14:33:04.129Z,28.49
2018-06-01T14:35:32.696Z,28.35
2018-06-01T14:38:02.763Z,28.51
2018-06-01T14:40:32.465Z,28.54
2018-06-01T14:43:03.286Z,28.35
2018-06-01T14:45:32.089Z,28.54
2018-06-01T14:48:00.915Z,28.72
2018-06-01T14:50:29.605Z,28.77
2018-06-01T14:52:58.331Z,28.76
2018-06-01T14:55:26.883Z,28.80
2018-06-01T14:57:55.435Z,28.87
2018-06-01T15:00:24.003Z,28.82
2018-06-01T15:02:52.550Z,28.85
2018-06-01T15:05:25.012Z,29.03
2018-06-01T15:07:53.313Z,29.12
2018-06-01T15:10:21.863Z,29.06
2018-06-01T15:12:51.322Z,29.02
2018-06-01T15:15:19.888Z,28.98
2018-06-01T15:17:48.487Z,28.88
2018-06-01T15:20:17.206Z,28.74
2018-06-01T15:22:45.806Z,28.44
2018-06-01T15:25:14.366Z,28.29
2018-06-01T15:27:42.927Z,28.03
2018-06-01T15:30:11.521Z,27.90
2018-06-01T15:32:40.126Z,27.94
2018-06-01T15:35:08.689Z,27.95
2018-06-01T15:37:37.283Z,27.98
2018-06-01T15:40:05.834Z,27.99
2018-06-01T15:42:34.443Z,27.68
2018-06-01T15:45:02.983Z,27.76
2018-06-01T15:47:31.540Z,27.65
2018-06-01T15:50:00.113Z,27.76
2018-06-01T15:52:28.664Z,27.83
2018-06-01T15:54:57.218Z,27.86
2018-06-01T15:57:25.780Z,27.90
2018-06-01T15:59:54.371Z,27.88
2018-06-01T16:02:22.926Z,27.85
2018-06-01T16:04:51.512Z,27.96
2018-06-01T16:07:20.089Z,28.05
2018-06-01T16:09:48.835Z,28.02
2018-06-01T16:12:17.430Z,28.01
2018-06-01T16:14:46.015Z,28.00
2018-06-01T16:17:14.760Z,27.96
2018-06-01T16:19:43.312Z,27.93
2018-06-01T16:22:11.867Z,27.88
2018-06-01T16:24:40.474Z,27.83
2018-06-01T16:27:09.030Z,27.85
2018-06-01T16:29:37.631Z,27.88
2018-06-01T16:32:06.200Z,27.83
2018-06-01T16:34:34.755Z,27.72
2018-06-01T16:37:03.323Z,27.69
2018-06-01T16:39:31.884Z,27.60
2018-06-01T16:42:00.451Z,27.48
2018-06-01T16:44:29.057Z,27.40
2018-06-01T16:46:57.601Z,27.40
2018-06-01T16:49:26.212Z,27.44
2018-06-01T16:51:54.762Z,27.35
2018-06-01T16:54:23.397Z,27.34
2018-06-01T16:56:52.101Z,27.09
2018-06-01T16:59:20.654Z,27.01
2018-06-01T17:01:49.238Z,27.00
2018-06-01T17:04:17.803Z,26.99
2018-06-01T17:06:46.407Z,26.96
2018-06-01T17:09:14.959Z,26.99
2018-06-01T17:11:43.556Z,26.99
2018-06-01T17:14:12.106Z,26.97
2018-06-01T17:16:40.664Z,26.92
2018-06-01T17:19:09.275Z,26.88
2018-06-01T17:21:37.831Z,26.84
2018-06-01T17:24:06.379Z,26.81
2018-06-01T17:26:34.933Z,26.75
2018-06-01T17:29:03.512Z,26.71
2018-06-01T17:31:32.077Z,26.64
2018-06-01T17:34:00.639Z,26.52
2018-06-01T17:36:29.231Z,26.46
2018-06-01T17:38:57.783Z,26.39
2018-06-01T17:41:26.348Z,26.33
2018-06-01T17:43:54.900Z,26.19
2018-06-01T17:46:23.468Z,26.14
2018-06-01T17:48:52.035Z,26.11
2018-06-01T17:51:20.632Z,26.06
2018-06-01T17:53:49.185Z,26.00
2018-06-01T17:56:17.745Z,25.91
2018-06-01T17:58:46.298Z,25.81
2018-06-01T18:01:14.888Z,25.69
2018-06-01T18:03:43.475Z,25.67
2018-06-01T18:06:12.034Z,25.63
2018-06-01T18:08:40.587Z,25.60
2018-06-01T18:11:09.162Z,25.51
2018-06-01T18:13:37.723Z,25.46
2018-06-01T18:16:06.287Z,25.42
2018-06-01T18:18:34.832Z,25.36
2018-06-01T18:21:03.405Z,25.34
2018-06-01T18:23:31.963Z,25.29
2018-06-01T18:26:00.534Z,25.28
2018-06-01T18:28:29.118Z,25.25
2018-06-01T18:30:57.701Z,25.24
2018-06-01T18:33:26.279Z,25.19
2018-06-01T18:35:54.848Z,25.16
2018-06-01T18:38:23.440Z,25.05
2018-06-01T18:40:58.059Z,25.01
2018-06-01T18:43:26.616Z,24.97
2018-06-01T18:45:55.175Z,24.91
2018-06-01T18:48:24.404Z,24.84
2018-06-01T18:50:52.611Z,24.81
2018-06-01T18:53:21.172Z,24.75
2018-06-01T18:55:49.755Z,24.70
2018-06-01T18:58:18.302Z,24.61
2018-06-01T19:00:46.876Z,24.56
2018-06-01T19:03:15.453Z,24.48
2018-06-01T19:05:44.215Z,24.48
2018-06-01T19:08:12.879Z,24.41
2018-06-01T19:10:41.440Z,24.40
2018-06-01T19:13:10.060Z,24.35
2018-06-01T19:15:38.619Z,24.33
2018-06-01T19:18:07.196Z,24.28
2018-06-01T19:20:35.817Z,24.20
2018-06-01T19:23:04.380Z,24.18
2018-06-01T19:25:32.944Z,24.09
2018-06-01T19:28:01.514Z,23.97
2018-06-01T19:30:30.169Z,23.88
2018-06-01T19:32:58.733Z,23.82
2018-06-01T19:35:27.339Z,23.69
2018-06-01T19:37:55.905Z,23.65
2018-06-01T19:40:24.450Z,23.60
2018-06-01T19:42:53.014Z,23.58
2018-06-01T19:45:21.579Z,23.56
2018-06-01T19:47:50.211Z,23.54
2018-06-01T19:50:18.772Z,23.51
2018-06-01T19:52:47.340Z,23.50
2018-06-01T19:55:15.907Z,23.45
2018-06-01T19:57:46.096Z,23.42
2018-06-01T20:00:14.707Z,23.37
2018-06-01T20:02:44.076Z,23.36
2018-06-01T20:05:12.635Z,23.33
2018-06-01T20:07:41.193Z,23.24
2018-06-01T20:10:09.800Z,23.14
2018-06-01T20:12:38.351Z,23.06
2018-06-01T20:15:06.916Z,23.05
2018-06-01T20:17:35.480Z,23.03
2018-06-01T20:20:04.163Z,22.97
2018-06-01T20:22:32.744Z,22.96
2018-06-01T20:25:01.342Z,22.88
2018-06-01T20:27:29.973Z,22.88
2018-06-01T20:29:58.539Z,22.88
2018-06-01T20:32:27.141Z,22.88
2018-06-01T20:34:55.699Z,22.84
2018-06-01T20:37:24.251Z,22.81
2018-06-01T20:39:52.806Z,22.83
2018-06-01T20:42:21.420Z,22.83
2018-06-01T20:44:49.972Z,22.87
2018-06-01T20:47:18.539Z,22.88
2018-06-01T20:49:47.091Z,22.87
2018-06-01T20:52:15.657Z,22.87
2018-06-01T20:54:44.203Z,22.87
2018-06-01T20:57:12.778Z,22.86
2018-06-01T20:59:41.994Z,22.85
2018-06-01T21:02:10.561Z,22.83
2018-06-01T21:04:39.114Z,22.84
2018-06-01T21:07:08.588Z,22.83
2018-06-01T21:09:37.185Z,22.84
2018-06-01T21:12:05.900Z,22.76
2018-06-01T21:14:34.456Z,22.75
2018-06-01T21:17:03.022Z,22.67
2018-06-01T21:19:31.588Z,22.60
2018-06-01T21:22:01.067Z,22.50
2018-06-01T21:24:29.623Z,22.46
2018-06-01T21:26:58.192Z,22.41
2018-06-01T21:29:26.787Z,22.40
2018-06-01T21:31:55.336Z,22.30
2018-06-01T21:34:23.891Z,22.26
2018-06-01T21:36:52.456Z,22.20
2018-06-01T21:39:21.020Z,22.17
2018-06-01T21:41:49.657Z,22.16
2018-06-01T21:44:18.347Z,22.14
2018-06-01T21:46:46.967Z,22.11
2018-06-01T21:49:15.652Z,22.04
2018-06-01T21:51:44.218Z,22.00
2018-06-01T21:54:12.787Z,21.93
2018-06-01T21:56:41.337Z,21.92
2018-06-01T21:59:09.938Z,21.89
2018-06-01T22:01:38.545Z,21.84
2018-06-01T22:04:07.149Z,21.79
2018-06-01T22:06:35.712Z,21.76
2018-06-01T22:09:03.351Z,21.71
2018-06-01T22:11:32.719Z,21.69
2018-06-01T22:14:01.278Z,21.62
2018-06-01T22:16:29.831Z,21.58
2018-06-01T22:18:58.386Z,21.51
2018-06-01T22:21:26.971Z,21.46
2018-06-01T22:23:55.215Z,21.40
2018-06-01T22:26:23.780Z,21.30
2018-06-01T22:28:52.357Z,21.28
2018-06-01T22:31:20.912Z,21.21
2018-06-01T22:33:49.467Z,21.18
2018-06-01T22:36:18.220Z,21.10
2018-06-01T22:38:46.772Z,21.10
2018-06-01T22:41:15.337Z,21.14
2018-06-01T22:43:43.901Z,21.12
2018-06-01T22:46:12.464Z,21.09
2018-06-01T22:48:41.012Z,21.07
2018-06-01T22:51:09.575Z,21.08
2018-06-01T22:53:38.180Z,21.09
2018-06-01T22:56:06.739Z,21.06
2018-06-01T22:58:35.341Z,20.96
2018-06-01T23:01:04.092Z,20.89
2018-06-01T23:03:32.680Z,20.76
2018-06-01T23:06:01.244Z,20.61
2018-06-01T23:08:29.845Z,20.50
2018-06-01T23:10:58.397Z,20.43
2018-06-01T23:13:26.948Z,20.34
2018-06-01T23:15:55.505Z,20.29
2018-06-01T23:18:24.109Z,20.34
2018-06-01T23:20:52.668Z,20.32
2018-06-01T23:23:21.220Z,20.34
2018-06-01T23:25:49.780Z,20.42
2018-06-01T23:28:18.340Z,20.49
2018-06-01T23:30:46.892Z,20.59
2018-06-01T23:33:15.446Z,20.68
2018-06-01T23:35:44.037Z,20.74
2018-06-01T23:38:12.604Z,20.79
2018-06-01T23:40:41.163Z,20.83
2018-06-01T23:43:09.714Z,20.84
2018-06-01T23:45:38.279Z,20.85
2018-06-01T23:48:06.837Z,20.90
2018-06-01T23:50:35.455Z,20.86
2018-06-01T23:53:04.011Z,20.82
2018-06-01T23:55:32.564Z,20.81
2018-06-01T23:58:01.151Z,20.78
